Terminal Aerodrome Forecast
Issued by NWS Amarillo, TX

Home | Current Version | Previous Version | Text Only | Print | Product List | Glossary On
Versions: 1 2 3 4 5 6 7 8 9 10 11 12 13 14
000
FTUS44 KAMA 162343
TAFGUY
TAF
KGUY 162343Z 1700/1724 19009KT P6SM SCT150
     FM170900 34010KT P6SM FEW006 SCT150
     FM171100 33013KT P6SM BKN006
     FM171600 35016KT P6SM BKN012
     FM171900 35012KT P6SM SCT150=

USA.gov is the U.S. government's official web portal to all federal, state and local government web resources and services.